Accueil
METAR-TAF:

METAR-TAF

Aéroports :

Aizawl, Inde

latitude: 23-50-18N, longitude: 92-37-13E, altitude: 405 m

Observation

Le bulletin a été fait il y a 35 minutes, à 05:00 UTC
Vent 5 kt de sud/sud-est
Température 29°C
Humidité 66%
Pression 1009 hPa
Visibilité: 4000 m
Nuages épars à une hauteur de 1800 ft
Nuages fragmentés à une hauteur de 10000 ft
brume sèche

METAR: VELP 260500Z 16005KT 4000 HZ SCT018 BKN100 29/22 Q1009 NOSIG

Heure: 11:05 (05:35 UTC)

Prévision

Le bulletin a été fait il y a 35 minutes, à 05:00 UTC
Prévision valable du 26 à 06 UTC au 26 à 15 UTC
Vent 3 kt de sud
Visibilité: 4500 m
Nuages épars à une hauteur de 1800 ft
Nuages fragmentés à une hauteur de 10000 ft
brume sèche

TAF: VELP 260500Z 2606/2615 18003KT 4500 HZ SCT018 BKN100

Observations et prévisions météorologiques de plus de 4000 aéroports (messages METAR et TAF).

Les stations disponibles sont représentées par des disques jaunes et rouges sur la carte.

Passer la souris dessus pour voir le nom de la station.

Cliquer dessus pour voir les observations et prévisions météorologiques.

Pour changer de carte: cliquez sur les boutons verts avec une croix noire pour zoomer, sur le bouton vert avec un tiret pour effectuer un zoom arrière, ou sur les flèches vertes pour les cartes adjacentes.


METAR-TAF: